sensor_id;sensor_type;location;lat;lon;timestamp;P1;durP1;ratioP1;P2;durP2;ratioP2
6561;SDS011;3314;50.890;4.722;2022-11-21T00:01:16;7.0;;;0.8;;
6561;SDS011;3314;50.890;4.722;2022-11-21T00:03:16;6.5;;;0.9;;
6561;SDS011;3314;50.890;4.722;2022-11-21T00:05:16;6.2;;;0.8;;
6561;SDS011;3314;50.890;4.722;2022-11-21T00:07:15;5.1;;;0.8;;
6561;SDS011;3314;50.890;4.722;2022-11-21T00:09:15;11.0;;;1.5;;
6561;SDS011;3314;50.890;4.722;2022-11-21T00:11:15;7.6;;;1.0;;
6561;SDS011;3314;50.890;4.722;2022-11-21T00:13:15;7.8;;;0.9;;
6561;SDS011;3314;50.890;4.722;2022-11-21T00:15:05;7.1;;;0.7;;
6561;SDS011;3314;50.890;4.722;2022-11-21T00:17:04;5.8;;;1.3;;
6561;SDS011;3314;50.890;4.722;2022-11-21T00:19:04;5.2;;;0.7;;
6561;SDS011;3314;50.890;4.722;2022-11-21T00:21:04;8.9;;;0.9;;
6561;SDS011;3314;50.890;4.722;2022-11-21T00:23:04;6.6;;;1.1;;
6561;SDS011;3314;50.890;4.722;2022-11-21T00:25:04;7.9;;;1.3;;
6561;SDS011;3314;50.890;4.722;2022-11-21T00:27:04;6.5;;;0.8;;
6561;SDS011;3314;50.890;4.722;2022-11-21T00:29:04;8.8;;;1.0;;
6561;SDS011;3314;50.890;4.722;2022-11-21T00:31:04;6.7;;;0.8;;
6561;SDS011;3314;50.890;4.722;2022-11-21T00:33:03;5.5;;;0.7;;
6561;SDS011;3314;50.890;4.722;2022-11-21T00:35:03;7.2;;;1.1;;
6561;SDS011;3314;50.890;4.722;2022-11-21T00:37:03;10.0;;;1.4;;
6561;SDS011;3314;50.890;4.722;2022-11-21T00:39:03;6.1;;;1.4;;
6561;SDS011;3314;50.890;4.722;2022-11-21T00:41:03;8.6;;;1.2;;
6561;SDS011;3314;50.890;4.722;2022-11-21T00:43:02;13.0;;;1.6;;
6561;SDS011;3314;50.890;4.722;2022-11-21T00:45:02;7.7;;;1.4;;
6561;SDS011;3314;50.890;4.722;2022-11-21T00:47:02;10.0;;;1.5;;
6561;SDS011;3314;50.890;4.722;2022-11-21T00:49:01;8.4;;;1.4;;
6561;SDS011;3314;50.890;4.722;2022-11-21T00:51:01;12.6;;;1.5;;
6561;SDS011;3314;50.890;4.722;2022-11-21T00:53:01;11.6;;;1.6;;
6561;SDS011;3314;50.890;4.722;2022-11-21T00:55:00;7.4;;;1.6;;
6561;SDS011;3314;50.890;4.722;2022-11-21T00:57:00;12.2;;;1.9;;
6561;SDS011;3314;50.890;4.722;2022-11-21T00:59:00;11.0;;;1.9;;
6561;SDS011;3314;50.890;4.722;2022-11-21T01:01:01;9.9;;;1.9;;
6561;SDS011;3314;50.890;4.722;2022-11-21T01:03:00;7.2;;;1.9;;
6561;SDS011;3314;50.890;4.722;2022-11-21T01:05:00;10.3;;;2.2;;
6561;SDS011;3314;50.890;4.722;2022-11-21T01:07:00;11.1;;;1.9;;
6561;SDS011;3314;50.890;4.722;2022-11-21T01:08:59;13.7;;;2.5;;
6561;SDS011;3314;50.890;4.722;2022-11-21T01:11:01;18.5;;;2.7;;
6561;SDS011;3314;50.890;4.722;2022-11-21T01:13:01;12.8;;;2.4;;
6561;SDS011;3314;50.890;4.722;2022-11-21T01:15:00;12.0;;;2.3;;
6561;SDS011;3314;50.890;4.722;2022-11-21T01:17:00;11.9;;;1.7;;
6561;SDS011;3314;50.890;4.722;2022-11-21T01:19:00;14.0;;;2.3;;
6561;SDS011;3314;50.890;4.722;2022-11-21T01:20:59;9.5;;;2.0;;
6561;SDS011;3314;50.890;4.722;2022-11-21T01:22:59;13.0;;;2.2;;
6561;SDS011;3314;50.890;4.722;2022-11-21T01:24:59;11.5;;;2.4;;
6561;SDS011;3314;50.890;4.722;2022-11-21T01:26:58;8.0;;;2.0;;
6561;SDS011;3314;50.890;4.722;2022-11-21T01:28:58;11.6;;;2.6;;
6561;SDS011;3314;50.890;4.722;2022-11-21T01:31:10;7.7;;;1.9;;
6561;SDS011;3314;50.890;4.722;2022-11-21T01:32:58;12.4;;;2.2;;
6561;SDS011;3314;50.890;4.722;2022-11-21T01:34:58;12.0;;;2.1;;
6561;SDS011;3314;50.890;4.722;2022-11-21T01:36:57;14.5;;;2.1;;
6561;SDS011;3314;50.890;4.722;2022-11-21T01:38:59;9.1;;;1.8;;
6561;SDS011;3314;50.890;4.722;2022-11-21T01:40:48;14.9;;;2.8;;
6561;SDS011;3314;50.890;4.722;2022-11-21T01:42:51;10.8;;;2.2;;
6561;SDS011;3314;50.890;4.722;2022-11-21T01:44:53;10.8;;;2.7;;
6561;SDS011;3314;50.890;4.722;2022-11-21T01:46:52;9.7;;;1.8;;
6561;SDS011;3314;50.890;4.722;2022-11-21T01:48:53;9.1;;;2.0;;
6561;SDS011;3314;50.890;4.722;2022-11-21T01:50:53;8.6;;;2.3;;
6561;SDS011;3314;50.890;4.722;2022-11-21T01:52:54;14.4;;;2.4;;
6561;SDS011;3314;50.890;4.722;2022-11-21T01:54:55;9.5;;;1.9;;
6561;SDS011;3314;50.890;4.722;2022-11-21T01:56:45;11.6;;;1.9;;
6561;SDS011;3314;50.890;4.722;2022-11-21T01:58:47;11.8;;;2.5;;
6561;SDS011;3314;50.890;4.722;2022-11-21T02:00:47;11.0;;;1.7;;
6561;SDS011;3314;50.890;4.722;2022-11-21T02:02:48;9.1;;;2.2;;
6561;SDS011;3314;50.890;4.722;2022-11-21T02:04:50;14.0;;;2.7;;
6561;SDS011;3314;50.890;4.722;2022-11-21T02:06:51;12.4;;;2.1;;
6561;SDS011;3314;50.890;4.722;2022-11-21T02:08:50;8.7;;;1.7;;
6561;SDS011;3314;50.890;4.722;2022-11-21T02:10:52;7.5;;;1.4;;
6561;SDS011;3314;50.890;4.722;2022-11-21T02:12:43;11.0;;;2.1;;
6561;SDS011;3314;50.890;4.722;2022-11-21T02:14:44;8.1;;;1.9;;
6561;SDS011;3314;50.890;4.722;2022-11-21T02:16:44;10.9;;;2.2;;
6561;SDS011;3314;50.890;4.722;2022-11-21T02:18:44;8.5;;;1.7;;
6561;SDS011;3314;50.890;4.722;2022-11-21T02:20:45;10.2;;;2.1;;
6561;SDS011;3314;50.890;4.722;2022-11-21T02:22:50;11.6;;;1.4;;
6561;SDS011;3314;50.890;4.722;2022-11-21T02:24:41;6.9;;;1.5;;
6561;SDS011;3314;50.890;4.722;2022-11-21T02:26:43;7.6;;;1.8;;
6561;SDS011;3314;50.890;4.722;2022-11-21T02:28:43;10.1;;;2.1;;
6561;SDS011;3314;50.890;4.722;2022-11-21T02:30:43;7.5;;;1.5;;
6561;SDS011;3314;50.890;4.722;2022-11-21T02:32:46;14.2;;;1.7;;
6561;SDS011;3314;50.890;4.722;2022-11-21T02:34:45;7.8;;;1.5;;
6561;SDS011;3314;50.890;4.722;2022-11-21T02:36:45;11.0;;;2.0;;
6561;SDS011;3314;50.890;4.722;2022-11-21T02:38:45;9.9;;;2.0;;
6561;SDS011;3314;50.890;4.722;2022-11-21T02:40:47;7.9;;;1.8;;
6561;SDS011;3314;50.890;4.722;2022-11-21T02:42:37;12.6;;;2.1;;
6561;SDS011;3314;50.890;4.722;2022-11-21T02:44:40;9.5;;;1.5;;
6561;SDS011;3314;50.890;4.722;2022-11-21T02:46:45;7.9;;;1.6;;
6561;SDS011;3314;50.890;4.722;2022-11-21T02:48:35;10.2;;;2.2;;
6561;SDS011;3314;50.890;4.722;2022-11-21T02:50:36;7.9;;;1.4;;
6561;SDS011;3314;50.890;4.722;2022-11-21T02:52:36;16.0;;;2.5;;
6561;SDS011;3314;50.890;4.722;2022-11-21T02:54:35;10.3;;;1.6;;
6561;SDS011;3314;50.890;4.722;2022-11-21T02:56:35;9.2;;;1.6;;
6561;SDS011;3314;50.890;4.722;2022-11-21T02:58:35;12.1;;;2.2;;
6561;SDS011;3314;50.890;4.722;2022-11-21T03:00:35;10.9;;;2.2;;
6561;SDS011;3314;50.890;4.722;2022-11-21T03:02:35;9.7;;;1.5;;
6561;SDS011;3314;50.890;4.722;2022-11-21T03:04:34;8.7;;;1.4;;
6561;SDS011;3314;50.890;4.722;2022-11-21T03:06:34;8.8;;;1.6;;
6561;SDS011;3314;50.890;4.722;2022-11-21T03:08:34;9.2;;;1.3;;
6561;SDS011;3314;50.890;4.722;2022-11-21T03:10:33;12.9;;;2.0;;
6561;SDS011;3314;50.890;4.722;2022-11-21T03:12:34;8.7;;;1.6;;
6561;SDS011;3314;50.890;4.722;2022-11-21T03:14:34;7.9;;;1.5;;
6561;SDS011;3314;50.890;4.722;2022-11-21T03:16:34;14.1;;;2.3;;
6561;SDS011;3314;50.890;4.722;2022-11-21T03:18:33;11.3;;;2.0;;
6561;SDS011;3314;50.890;4.722;2022-11-21T03:20:33;10.0;;;1.7;;
6561;SDS011;3314;50.890;4.722;2022-11-21T03:22:33;9.0;;;1.5;;
6561;SDS011;3314;50.890;4.722;2022-11-21T03:24:33;6.9;;;1.2;;
6561;SDS011;3314;50.890;4.722;2022-11-21T03:26:33;8.9;;;1.6;;
6561;SDS011;3314;50.890;4.722;2022-11-21T03:28:32;13.0;;;1.9;;
6561;SDS011;3314;50.890;4.722;2022-11-21T03:30:32;9.8;;;1.5;;
6561;SDS011;3314;50.890;4.722;2022-11-21T03:32:32;9.2;;;2.1;;
6561;SDS011;3314;50.890;4.722;2022-11-21T03:34:31;11.9;;;1.9;;
6561;SDS011;3314;50.890;4.722;2022-11-21T03:36:31;8.6;;;1.6;;
6561;SDS011;3314;50.890;4.722;2022-11-21T03:38:31;9.0;;;2.0;;
6561;SDS011;3314;50.890;4.722;2022-11-21T03:40:30;7.2;;;1.8;;
6561;SDS011;3314;50.890;4.722;2022-11-21T03:42:30;11.1;;;1.9;;
6561;SDS011;3314;50.890;4.722;2022-11-21T03:44:30;8.5;;;1.5;;
6561;SDS011;3314;50.890;4.722;2022-11-21T03:46:30;11.9;;;2.4;;
6561;SDS011;3314;50.890;4.722;2022-11-21T03:48:30;11.3;;;2.2;;
6561;SDS011;3314;50.890;4.722;2022-11-21T03:50:32;9.2;;;1.7;;
6561;SDS011;3314;50.890;4.722;2022-11-21T03:52:32;16.2;;;1.7;;
6561;SDS011;3314;50.890;4.722;2022-11-21T03:54:22;8.0;;;1.4;;
6561;SDS011;3314;50.890;4.722;2022-11-21T03:56:21;11.2;;;2.0;;
6561;SDS011;3314;50.890;4.722;2022-11-21T03:58:21;8.6;;;2.0;;
6561;SDS011;3314;50.890;4.722;2022-11-21T04:00:21;9.3;;;1.7;;
6561;SDS011;3314;50.890;4.722;2022-11-21T04:02:21;6.6;;;1.3;;
6561;SDS011;3314;50.890;4.722;2022-11-21T04:04:20;10.9;;;1.5;;
6561;SDS011;3314;50.890;4.722;2022-11-21T04:06:20;7.6;;;1.2;;
6561;SDS011;3314;50.890;4.722;2022-11-21T04:08:20;8.6;;;1.5;;
6561;SDS011;3314;50.890;4.722;2022-11-21T04:10:20;11.8;;;1.6;;
6561;SDS011;3314;50.890;4.722;2022-11-21T04:12:20;7.5;;;1.4;;
6561;SDS011;3314;50.890;4.722;2022-11-21T04:14:20;7.5;;;1.5;;
6561;SDS011;3314;50.890;4.722;2022-11-21T04:16:19;8.5;;;1.5;;
6561;SDS011;3314;50.890;4.722;2022-11-21T04:18:19;8.2;;;1.7;;
6561;SDS011;3314;50.890;4.722;2022-11-21T04:20:19;9.3;;;1.9;;
6561;SDS011;3314;50.890;4.722;2022-11-21T04:22:19;8.6;;;1.7;;
6561;SDS011;3314;50.890;4.722;2022-11-21T04:24:18;8.8;;;1.3;;
6561;SDS011;3314;50.890;4.722;2022-11-21T04:26:18;10.8;;;1.6;;
6561;SDS011;3314;50.890;4.722;2022-11-21T04:28:18;8.1;;;1.8;;
6561;SDS011;3314;50.890;4.722;2022-11-21T04:30:17;12.2;;;2.0;;
6561;SDS011;3314;50.890;4.722;2022-11-21T04:32:17;11.1;;;2.2;;
6561;SDS011;3314;50.890;4.722;2022-11-21T04:34:17;7.4;;;1.6;;
6561;SDS011;3314;50.890;4.722;2022-11-21T04:36:16;8.8;;;1.5;;
6561;SDS011;3314;50.890;4.722;2022-11-21T04:38:16;13.4;;;2.3;;
6561;SDS011;3314;50.890;4.722;2022-11-21T04:40:16;11.9;;;1.9;;
6561;SDS011;3314;50.890;4.722;2022-11-21T04:42:15;11.7;;;2.2;;
6561;SDS011;3314;50.890;4.722;2022-11-21T04:44:15;8.7;;;1.6;;
6561;SDS011;3314;50.890;4.722;2022-11-21T04:46:15;12.5;;;1.8;;
6561;SDS011;3314;50.890;4.722;2022-11-21T04:48:14;9.9;;;2.1;;
6561;SDS011;3314;50.890;4.722;2022-11-21T04:50:14;12.4;;;1.8;;
6561;SDS011;3314;50.890;4.722;2022-11-21T04:52:14;12.4;;;2.7;;
6561;SDS011;3314;50.890;4.722;2022-11-21T04:54:14;8.9;;;2.1;;
6561;SDS011;3314;50.890;4.722;2022-11-21T04:56:15;8.0;;;1.6;;
6561;SDS011;3314;50.890;4.722;2022-11-21T04:58:15;11.3;;;1.8;;
6561;SDS011;3314;50.890;4.722;2022-11-21T05:00:15;11.2;;;2.2;;
6561;SDS011;3314;50.890;4.722;2022-11-21T05:02:15;10.6;;;2.5;;
6561;SDS011;3314;50.890;4.722;2022-11-21T05:04:15;9.5;;;1.9;;
6561;SDS011;3314;50.890;4.722;2022-11-21T05:06:14;9.7;;;1.8;;
6561;SDS011;3314;50.890;4.722;2022-11-21T05:08:14;9.5;;;1.8;;
6561;SDS011;3314;50.890;4.722;2022-11-21T05:10:14;11.9;;;2.1;;
6561;SDS011;3314;50.890;4.722;2022-11-21T05:14:22;13.9;;;2.2;;
6561;SDS011;3314;50.890;4.722;2022-11-21T05:14:34;9.0;;;1.6;;
6561;SDS011;3314;50.890;4.722;2022-11-21T05:16:10;12.0;;;2.0;;
6561;SDS011;3314;50.890;4.722;2022-11-21T05:18:09;11.0;;;2.5;;
6561;SDS011;3314;50.890;4.722;2022-11-21T05:20:10;10.7;;;2.4;;
6561;SDS011;3314;50.890;4.722;2022-11-21T05:22:09;11.9;;;2.4;;
6561;SDS011;3314;50.890;4.722;2022-11-21T05:24:09;13.1;;;2.1;;
6561;SDS011;3314;50.890;4.722;2022-11-21T05:26:09;9.9;;;2.1;;
6561;SDS011;3314;50.890;4.722;2022-11-21T05:28:08;9.5;;;1.8;;
6561;SDS011;3314;50.890;4.722;2022-11-21T05:30:08;9.4;;;1.7;;
6561;SDS011;3314;50.890;4.722;2022-11-21T05:32:08;12.0;;;1.6;;
6561;SDS011;3314;50.890;4.722;2022-11-21T05:34:08;11.6;;;1.6;;
6561;SDS011;3314;50.890;4.722;2022-11-21T05:36:08;11.6;;;2.3;;
6561;SDS011;3314;50.890;4.722;2022-11-21T05:38:07;13.1;;;1.8;;
6561;SDS011;3314;50.890;4.722;2022-11-21T05:40:07;10.1;;;2.7;;
6561;SDS011;3314;50.890;4.722;2022-11-21T05:42:07;10.8;;;2.5;;
6561;SDS011;3314;50.890;4.722;2022-11-21T05:44:07;15.3;;;1.9;;
6561;SDS011;3314;50.890;4.722;2022-11-21T05:46:06;15.6;;;2.1;;
6561;SDS011;3314;50.890;4.722;2022-11-21T05:48:07;7.7;;;1.6;;
6561;SDS011;3314;50.890;4.722;2022-11-21T05:50:07;9.9;;;1.5;;
6561;SDS011;3314;50.890;4.722;2022-11-21T05:52:07;9.2;;;1.7;;
6561;SDS011;3314;50.890;4.722;2022-11-21T05:54:06;11.2;;;2.1;;
6561;SDS011;3314;50.890;4.722;2022-11-21T05:56:06;10.9;;;2.0;;
6561;SDS011;3314;50.890;4.722;2022-11-21T05:58:08;9.4;;;1.4;;
6561;SDS011;3314;50.890;4.722;2022-11-21T05:59:57;9.5;;;1.6;;
6561;SDS011;3314;50.890;4.722;2022-11-21T06:03:59;7.1;;;1.6;;
6561;SDS011;3314;50.890;4.722;2022-11-21T06:04:11;9.4;;;1.8;;
6561;SDS011;3314;50.890;4.722;2022-11-21T06:06:00;8.5;;;2.0;;
6561;SDS011;3314;50.890;4.722;2022-11-21T06:07:59;9.5;;;1.8;;
6561;SDS011;3314;50.890;4.722;2022-11-21T06:09:59;11.2;;;2.8;;
6561;SDS011;3314;50.890;4.722;2022-11-21T06:11:59;8.3;;;1.6;;
6561;SDS011;3314;50.890;4.722;2022-11-21T06:13:58;9.5;;;2.3;;
6561;SDS011;3314;50.890;4.722;2022-11-21T06:15:59;11.4;;;1.9;;
6561;SDS011;3314;50.890;4.722;2022-11-21T06:17:59;8.1;;;1.5;;
6561;SDS011;3314;50.890;4.722;2022-11-21T06:19:58;8.1;;;1.7;;
6561;SDS011;3314;50.890;4.722;2022-11-21T06:21:58;10.5;;;1.6;;
6561;SDS011;3314;50.890;4.722;2022-11-21T06:23:57;6.4;;;1.7;;
6561;SDS011;3314;50.890;4.722;2022-11-21T06:25:58;6.4;;;1.1;;
6561;SDS011;3314;50.890;4.722;2022-11-21T06:27:58;9.9;;;1.5;;
6561;SDS011;3314;50.890;4.722;2022-11-21T06:29:58;8.2;;;1.6;;
6561;SDS011;3314;50.890;4.722;2022-11-21T06:31:57;9.8;;;1.5;;
6561;SDS011;3314;50.890;4.722;2022-11-21T06:33:57;9.0;;;2.0;;
6561;SDS011;3314;50.890;4.722;2022-11-21T06:35:57;12.8;;;1.8;;
6561;SDS011;3314;50.890;4.722;2022-11-21T06:37:59;8.2;;;1.8;;
6561;SDS011;3314;50.890;4.722;2022-11-21T06:39:59;9.8;;;1.8;;
6561;SDS011;3314;50.890;4.722;2022-11-21T06:41:59;6.7;;;1.3;;
6561;SDS011;3314;50.890;4.722;2022-11-21T06:43:49;8.1;;;1.6;;
6561;SDS011;3314;50.890;4.722;2022-11-21T06:45:48;11.5;;;2.1;;
6561;SDS011;3314;50.890;4.722;2022-11-21T06:47:48;13.8;;;1.7;;
6561;SDS011;3314;50.890;4.722;2022-11-21T06:49:47;9.9;;;1.5;;
6561;SDS011;3314;50.890;4.722;2022-11-21T06:51:47;8.0;;;1.5;;
6561;SDS011;3314;50.890;4.722;2022-11-21T06:53:51;6.9;;;1.3;;
6561;SDS011;3314;50.890;4.722;2022-11-21T06:55:51;9.9;;;2.1;;
6561;SDS011;3314;50.890;4.722;2022-11-21T06:57:51;7.6;;;1.4;;
6561;SDS011;3314;50.890;4.722;2022-11-21T06:59:51;8.3;;;1.7;;
6561;SDS011;3314;50.890;4.722;2022-11-21T07:01:50;12.9;;;2.0;;
6561;SDS011;3314;50.890;4.722;2022-11-21T07:03:50;9.5;;;1.3;;
6561;SDS011;3314;50.890;4.722;2022-11-21T07:05:50;9.7;;;2.0;;
6561;SDS011;3314;50.890;4.722;2022-11-21T07:07:49;8.4;;;1.2;;
6561;SDS011;3314;50.890;4.722;2022-11-21T07:09:49;11.0;;;1.6;;
6561;SDS011;3314;50.890;4.722;2022-11-21T07:11:49;8.9;;;1.6;;
6561;SDS011;3314;50.890;4.722;2022-11-21T07:13:48;9.1;;;2.0;;
6561;SDS011;3314;50.890;4.722;2022-11-21T07:15:50;10.3;;;1.8;;
6561;SDS011;3314;50.890;4.722;2022-11-21T07:17:50;8.4;;;1.6;;
6561;SDS011;3314;50.890;4.722;2022-11-21T07:19:49;9.5;;;2.2;;
6561;SDS011;3314;50.890;4.722;2022-11-21T07:21:49;7.9;;;1.6;;
6561;SDS011;3314;50.890;4.722;2022-11-21T07:23:49;7.8;;;1.6;;
6561;SDS011;3314;50.890;4.722;2022-11-21T07:25:48;9.7;;;1.8;;
6561;SDS011;3314;50.890;4.722;2022-11-21T07:27:48;13.7;;;2.2;;
6561;SDS011;3314;50.890;4.722;2022-11-21T07:29:48;9.3;;;1.9;;
6561;SDS011;3314;50.890;4.722;2022-11-21T07:31:47;11.3;;;2.3;;
6561;SDS011;3314;50.890;4.722;2022-11-21T07:33:48;11.1;;;2.1;;
6561;SDS011;3314;50.890;4.722;2022-11-21T07:35:48;12.9;;;2.2;;
6561;SDS011;3314;50.890;4.722;2022-11-21T07:37:47;9.1;;;1.7;;
6561;SDS011;3314;50.890;4.722;2022-11-21T07:39:47;10.0;;;2.3;;
6561;SDS011;3314;50.890;4.722;2022-11-21T07:41:47;20.1;;;2.5;;
6561;SDS011;3314;50.890;4.722;2022-11-21T07:43:46;10.9;;;2.3;;
6561;SDS011;3314;50.890;4.722;2022-11-21T07:45:46;12.3;;;3.0;;
6561;SDS011;3314;50.890;4.722;2022-11-21T07:47:46;11.9;;;2.3;;
6561;SDS011;3314;50.890;4.722;2022-11-21T07:49:35;12.0;;;2.4;;
6561;SDS011;3314;50.890;4.722;2022-11-21T07:51:35;13.0;;;3.0;;
6561;SDS011;3314;50.890;4.722;2022-11-21T07:53:35;15.1;;;3.1;;
6561;SDS011;3314;50.890;4.722;2022-11-21T07:55:34;15.1;;;3.5;;
6561;SDS011;3314;50.890;4.722;2022-11-21T07:57:34;11.5;;;2.0;;
6561;SDS011;3314;50.890;4.722;2022-11-21T07:59:33;11.6;;;2.8;;
6561;SDS011;3314;50.890;4.722;2022-11-21T08:01:33;16.0;;;2.8;;
6561;SDS011;3314;50.890;4.722;2022-11-21T08:03:33;15.7;;;2.8;;
6561;SDS011;3314;50.890;4.722;2022-11-21T08:05:34;14.9;;;1.6;;
6561;SDS011;3314;50.890;4.722;2022-11-21T08:07:34;13.5;;;2.2;;
6561;SDS011;3314;50.890;4.722;2022-11-21T08:09:33;13.8;;;2.0;;
6561;SDS011;3314;50.890;4.722;2022-11-21T08:11:34;9.1;;;1.6;;
6561;SDS011;3314;50.890;4.722;2022-11-21T08:13:34;10.3;;;2.2;;
6561;SDS011;3314;50.890;4.722;2022-11-21T08:15:34;10.2;;;1.9;;
6561;SDS011;3314;50.890;4.722;2022-11-21T08:17:34;6.9;;;1.6;;
6561;SDS011;3314;50.890;4.722;2022-11-21T08:19:33;9.7;;;1.7;;
6561;SDS011;3314;50.890;4.722;2022-11-21T08:21:33;13.4;;;2.2;;
6561;SDS011;3314;50.890;4.722;2022-11-21T08:23:33;7.4;;;1.2;;
6561;SDS011;3314;50.890;4.722;2022-11-21T08:25:32;11.7;;;2.3;;
6561;SDS011;3314;50.890;4.722;2022-11-21T08:27:32;7.0;;;1.5;;
6561;SDS011;3314;50.890;4.722;2022-11-21T08:29:32;10.8;;;1.6;;
6561;SDS011;3314;50.890;4.722;2022-11-21T08:31:31;10.4;;;1.7;;
6561;SDS011;3314;50.890;4.722;2022-11-21T08:33:31;10.5;;;1.5;;
6561;SDS011;3314;50.890;4.722;2022-11-21T08:35:31;10.4;;;1.4;;
6561;SDS011;3314;50.890;4.722;2022-11-21T08:37:33;8.9;;;1.5;;
6561;SDS011;3314;50.890;4.722;2022-11-21T08:39:33;11.3;;;1.9;;
6561;SDS011;3314;50.890;4.722;2022-11-21T08:42:04;7.3;;;1.3;;
6561;SDS011;3314;50.890;4.722;2022-11-21T08:43:28;20.2;;;1.9;;
6561;SDS011;3314;50.890;4.722;2022-11-21T08:45:28;8.9;;;1.7;;
6561;SDS011;3314;50.890;4.722;2022-11-21T08:47:28;7.9;;;1.4;;
6561;SDS011;3314;50.890;4.722;2022-11-21T08:49:27;7.4;;;1.4;;
6561;SDS011;3314;50.890;4.722;2022-11-21T08:51:28;10.9;;;1.4;;
6561;SDS011;3314;50.890;4.722;2022-11-21T08:53:27;8.6;;;1.7;;
6561;SDS011;3314;50.890;4.722;2022-11-21T08:55:27;6.1;;;1.3;;
6561;SDS011;3314;50.890;4.722;2022-11-21T08:57:27;7.4;;;1.7;;
6561;SDS011;3314;50.890;4.722;2022-11-21T08:59:26;8.4;;;1.5;;
6561;SDS011;3314;50.890;4.722;2022-11-21T09:01:26;10.1;;;1.8;;
6561;SDS011;3314;50.890;4.722;2022-11-21T09:03:26;8.5;;;1.6;;
6561;SDS011;3314;50.890;4.722;2022-11-21T09:05:25;11.8;;;1.6;;
6561;SDS011;3314;50.890;4.722;2022-11-21T09:07:25;12.3;;;1.7;;
6561;SDS011;3314;50.890;4.722;2022-11-21T09:09:25;13.2;;;2.1;;
6561;SDS011;3314;50.890;4.722;2022-11-21T09:11:25;8.0;;;1.9;;
6561;SDS011;3314;50.890;4.722;2022-11-21T09:13:24;8.9;;;2.2;;
6561;SDS011;3314;50.890;4.722;2022-11-21T09:17:31;10.1;;;2.5;;
6561;SDS011;3314;50.890;4.722;2022-11-21T09:18:13;10.9;;;2.3;;
6561;SDS011;3314;50.890;4.722;2022-11-21T09:19:25;13.1;;;2.9;;
6561;SDS011;3314;50.890;4.722;2022-11-21T09:21:24;12.6;;;3.1;;
6561;SDS011;3314;50.890;4.722;2022-11-21T09:23:24;15.4;;;3.4;;
6561;SDS011;3314;50.890;4.722;2022-11-21T09:25:24;11.9;;;2.6;;
6561;SDS011;3314;50.890;4.722;2022-11-21T09:27:24;10.6;;;3.0;;
6561;SDS011;3314;50.890;4.722;2022-11-21T09:29:23;12.3;;;3.0;;
6561;SDS011;3314;50.890;4.722;2022-11-21T09:31:23;10.9;;;2.5;;
6561;SDS011;3314;50.890;4.722;2022-11-21T09:33:23;9.0;;;2.4;;
6561;SDS011;3314;50.890;4.722;2022-11-21T09:35:22;11.6;;;2.7;;
6561;SDS011;3314;50.890;4.722;2022-11-21T09:37:22;14.5;;;2.5;;
6561;SDS011;3314;50.890;4.722;2022-11-21T09:39:22;11.7;;;2.6;;
6561;SDS011;3314;50.890;4.722;2022-11-21T09:41:57;9.4;;;2.2;;
6561;SDS011;3314;50.890;4.722;2022-11-21T09:43:25;13.0;;;2.4;;
6561;SDS011;3314;50.890;4.722;2022-11-21T09:45:17;10.0;;;2.2;;
6561;SDS011;3314;50.890;4.722;2022-11-21T09:47:21;15.2;;;2.5;;
6561;SDS011;3314;50.890;4.722;2022-11-21T09:49:12;10.3;;;2.3;;
6561;SDS011;3314;50.890;4.722;2022-11-21T09:51:12;9.4;;;2.1;;
6561;SDS011;3314;50.890;4.722;2022-11-21T09:53:14;12.2;;;2.2;;
6561;SDS011;3314;50.890;4.722;2022-11-21T09:55:16;9.6;;;2.1;;
6561;SDS011;3314;50.890;4.722;2022-11-21T09:57:18;11.8;;;2.5;;
6561;SDS011;3314;50.890;4.722;2022-11-21T09:59:24;14.9;;;2.0;;
6561;SDS011;3314;50.890;4.722;2022-11-21T10:01:15;14.1;;;2.8;;
6561;SDS011;3314;50.890;4.722;2022-11-21T10:03:15;9.8;;;1.8;;
6561;SDS011;3314;50.890;4.722;2022-11-21T10:05:15;8.4;;;2.2;;
6561;SDS011;3314;50.890;4.722;2022-11-21T10:07:16;9.2;;;1.8;;
6561;SDS011;3314;50.890;4.722;2022-11-21T10:09:10;9.5;;;2.0;;
6561;SDS011;3314;50.890;4.722;2022-11-21T10:11:16;11.5;;;2.1;;
6561;SDS011;3314;50.890;4.722;2022-11-21T10:13:18;12.1;;;1.8;;
6561;SDS011;3314;50.890;4.722;2022-11-21T10:15:28;6.7;;;1.9;;
6561;SDS011;3314;50.890;4.722;2022-11-21T10:17:10;9.6;;;1.8;;
6561;SDS011;3314;50.890;4.722;2022-11-21T10:19:31;11.0;;;2.3;;
6561;SDS011;3314;50.890;4.722;2022-11-21T10:21:11;12.7;;;2.8;;
6561;SDS011;3314;50.890;4.722;2022-11-21T10:23:17;8.4;;;2.0;;
6561;SDS011;3314;50.890;4.722;2022-11-21T10:25:10;10.0;;;2.7;;
6561;SDS011;3314;50.890;4.722;2022-11-21T10:27:12;7.3;;;2.6;;
6561;SDS011;3314;50.890;4.722;2022-11-21T10:29:14;10.6;;;3.2;;
6561;SDS011;3314;50.890;4.722;2022-11-21T10:31:04;9.9;;;2.6;;
6561;SDS011;3314;50.890;4.722;2022-11-21T10:33:08;10.1;;;3.2;;
6561;SDS011;3314;50.890;4.722;2022-11-21T10:35:12;9.9;;;2.9;;
6561;SDS011;3314;50.890;4.722;2022-11-21T10:37:14;11.2;;;3.1;;
6561;SDS011;3314;50.890;4.722;2022-11-21T10:39:04;12.7;;;3.0;;
6561;SDS011;3314;50.890;4.722;2022-11-21T10:41:06;9.7;;;3.4;;
6561;SDS011;3314;50.890;4.722;2022-11-21T10:45:17;11.5;;;2.4;;
6561;SDS011;3314;50.890;4.722;2022-11-21T10:45:49;10.4;;;2.6;;
6561;SDS011;3314;50.890;4.722;2022-11-21T10:47:01;7.5;;;2.1;;
6561;SDS011;3314;50.890;4.722;2022-11-21T10:49:01;7.7;;;2.0;;
6561;SDS011;3314;50.890;4.722;2022-11-21T10:51:04;8.8;;;2.8;;
6561;SDS011;3314;50.890;4.722;2022-11-21T10:54:32;7.4;;;2.0;;
6561;SDS011;3314;50.890;4.722;2022-11-21T10:55:08;11.3;;;3.6;;
6561;SDS011;3314;50.890;4.722;2022-11-21T10:57:10;10.3;;;2.3;;
6561;SDS011;3314;50.890;4.722;2022-11-21T10:58:59;8.5;;;2.0;;
6561;SDS011;3314;50.890;4.722;2022-11-21T11:00:58;9.6;;;2.2;;
6561;SDS011;3314;50.890;4.722;2022-11-21T11:03:01;9.6;;;2.4;;
6561;SDS011;3314;50.890;4.722;2022-11-21T11:05:16;13.2;;;2.9;;
6561;SDS011;3314;50.890;4.722;2022-11-21T11:07:18;10.0;;;2.6;;
6561;SDS011;3314;50.890;4.722;2022-11-21T11:09:12;10.7;;;2.5;;
6561;SDS011;3314;50.890;4.722;2022-11-21T11:11:00;8.0;;;2.1;;
6561;SDS011;3314;50.890;4.722;2022-11-21T11:14:05;8.7;;;2.7;;
6561;SDS011;3314;50.890;4.722;2022-11-21T11:14:58;9.8;;;2.3;;
6561;SDS011;3314;50.890;4.722;2022-11-21T11:16:58;10.4;;;2.3;;
6561;SDS011;3314;50.890;4.722;2022-11-21T11:18:59;10.8;;;2.8;;
6561;SDS011;3314;50.890;4.722;2022-11-21T11:21:23;7.6;;;1.9;;
6561;SDS011;3314;50.890;4.722;2022-11-21T11:22:59;9.8;;;2.2;;
6561;SDS011;3314;50.890;4.722;2022-11-21T11:25:02;9.8;;;2.5;;
6561;SDS011;3314;50.890;4.722;2022-11-21T11:27:02;13.4;;;2.4;;
6561;SDS011;3314;50.890;4.722;2022-11-21T11:29:07;25.4;;;2.5;;
6561;SDS011;3314;50.890;4.722;2022-11-21T11:30:55;9.4;;;2.2;;
6561;SDS011;3314;50.890;4.722;2022-11-21T11:32:55;10.3;;;2.1;;
6561;SDS011;3314;50.890;4.722;2022-11-21T11:34:57;10.7;;;2.8;;
6561;SDS011;3314;50.890;4.722;2022-11-21T11:37:02;13.1;;;2.6;;
6561;SDS011;3314;50.890;4.722;2022-11-21T11:38:53;11.9;;;2.0;;
6561;SDS011;3314;50.890;4.722;2022-11-21T11:40:54;9.0;;;1.8;;
6561;SDS011;3314;50.890;4.722;2022-11-21T11:45:04;10.9;;;2.8;;
6561;SDS011;3314;50.890;4.722;2022-11-21T11:47:28;12.1;;;2.7;;
6561;SDS011;3314;50.890;4.722;2022-11-21T11:47:47;11.7;;;2.4;;
6561;SDS011;3314;50.890;4.722;2022-11-21T11:49:02;11.6;;;2.3;;
6561;SDS011;3314;50.890;4.722;2022-11-21T11:50:51;10.0;;;2.1;;
6561;SDS011;3314;50.890;4.722;2022-11-21T11:52:54;18.3;;;3.2;;
6561;SDS011;3314;50.890;4.722;2022-11-21T11:54:57;8.0;;;2.2;;
6561;SDS011;3314;50.890;4.722;2022-11-21T11:56:57;10.6;;;2.9;;
6561;SDS011;3314;50.890;4.722;2022-11-21T11:58:48;10.9;;;2.5;;
6561;SDS011;3314;50.890;4.722;2022-11-21T12:00:49;11.6;;;2.8;;
6561;SDS011;3314;50.890;4.722;2022-11-21T12:02:53;16.2;;;3.2;;
6561;SDS011;3314;50.890;4.722;2022-11-21T12:04:56;10.5;;;2.5;;
6561;SDS011;3314;50.890;4.722;2022-11-21T12:06:47;13.0;;;2.7;;
6561;SDS011;3314;50.890;4.722;2022-11-21T12:08:51;10.3;;;2.9;;
6561;SDS011;3314;50.890;4.722;2022-11-21T12:13:02;10.5;;;2.5;;
6561;SDS011;3314;50.890;4.722;2022-11-21T12:13:14;12.1;;;3.0;;
6561;SDS011;3314;50.890;4.722;2022-11-21T12:15:54;14.0;;;2.6;;
6561;SDS011;3314;50.890;4.722;2022-11-21T12:16:44;12.5;;;2.4;;
6561;SDS011;3314;50.890;4.722;2022-11-21T12:18:47;7.4;;;2.3;;
6561;SDS011;3314;50.890;4.722;2022-11-21T12:20:49;9.5;;;2.5;;
6561;SDS011;3314;50.890;4.722;2022-11-21T12:22:52;12.4;;;3.0;;
6561;SDS011;3314;50.890;4.722;2022-11-21T12:24:42;12.0;;;2.6;;
6561;SDS011;3314;50.890;4.722;2022-11-21T12:26:46;10.1;;;2.4;;
6561;SDS011;3314;50.890;4.722;2022-11-21T12:28:50;10.0;;;2.2;;
6561;SDS011;3314;50.890;4.722;2022-11-21T12:30:46;14.2;;;2.4;;
6561;SDS011;3314;50.890;4.722;2022-11-21T12:32:52;9.7;;;2.4;;
6561;SDS011;3314;50.890;4.722;2022-11-21T12:34:45;11.2;;;2.7;;
6561;SDS011;3314;50.890;4.722;2022-11-21T12:36:50;10.5;;;2.6;;
6561;SDS011;3314;50.890;4.722;2022-11-21T12:38:47;8.9;;;2.1;;
6561;SDS011;3314;50.890;4.722;2022-11-21T12:40:42;10.8;;;2.4;;